Skip Navigation Links Skip Navigation Links

Current Weather

Burlington Muni, Burlington, Wis.

For information only: do not use for flight planning or navigation.
Latest weather
Observation time Wednesday, October 27, 2021 12:55 AM CDT
Local time Wednesday, October 27, 2021 1:27 AM CDT
Flight conditions Visual Meteorological Conditions
Winds
Wind speed calm
Visibility 10 mi.
Sky condition
Ceiling unlimited
Temperature 33°F
Dewpoint 32°F
Altimeter 30.04 in.Hg
Derived measurements
Relative humidity 99%
Wind chill 33°F
Density altitude -1061 ft.
Climate data
Temperature minimum, last 6 hours 32°F
Temperature maximum, last 6 hours 44°F
Temperature minimum, last 24 hours 32°F
Temperature maximum, last 24 hours 56°F
Remarks
Fully automated report.
Automated weather observing station with precipitation discriminator.
Present weather sensor not operating.
METAR KBUU 270555Z AUTO 00000KT 10SM 00/00 A3004 RMK AO2 T00030002 10066 20000 401340000 PWINO

Settings

Location code

InnerDrive.Weather 4.0.6770.0 Release CLR 4.0.30319.42000
Copyright ©2018 Inner Drive Technology. All rights reserved. Portions Copyright ©1986-2018 David Braverman.

Find weather

Site navigation


Skip Navigation Links

Place info

Page info

PayPal - The safer, easier way to pay online!

Return home.

Copyright ©2021 Inner Drive Technology. Purveyors of fine, hand-crafted computer software. Page printed 2021-10-27T06:27:39 UTC.